createdAt,value
2018-09-04T00:00:05.731Z,1015.54
2018-09-04T00:01:05.841Z,1015.56
2018-09-04T00:02:05.754Z,1015.54
2018-09-04T00:03:05.940Z,1015.53
2018-09-04T00:04:05.890Z,1015.54
2018-09-04T00:05:05.871Z,1015.59
2018-09-04T00:06:05.896Z,1015.58
2018-09-04T00:07:05.784Z,1015.62
2018-09-04T00:08:06.014Z,1015.56
2018-09-04T00:09:05.957Z,1015.62
2018-09-04T00:10:05.824Z,1015.58
2018-09-04T00:11:05.746Z,1015.62
2018-09-04T00:12:05.926Z,1015.63
2018-09-04T00:13:06.012Z,1015.58
2018-09-04T00:14:05.904Z,1015.62
2018-09-04T00:15:05.926Z,1015.61
2018-09-04T00:16:05.769Z,1015.62
2018-09-04T00:17:05.985Z,1015.62
2018-09-04T00:18:05.894Z,1015.61
2018-09-04T00:19:06.074Z,1015.62
2018-09-04T00:20:05.837Z,1015.59
2018-09-04T00:21:05.710Z,1015.6
2018-09-04T00:22:05.976Z,1015.55
2018-09-04T00:23:05.842Z,1015.6
2018-09-04T00:24:06.044Z,1015.59
2018-09-04T00:25:05.835Z,1015.59
2018-09-04T00:26:05.884Z,1015.62
2018-09-04T00:27:06.010Z,1015.62
2018-09-04T00:28:05.887Z,1015.58
2018-09-04T00:29:05.829Z,1015.61
2018-09-04T00:30:06.128Z,1015.6
2018-09-04T00:31:05.838Z,1015.62
2018-09-04T00:32:06.312Z,1015.61
2018-09-04T00:33:05.868Z,1015.6
2018-09-04T00:34:05.968Z,1015.61
2018-09-04T00:35:06.860Z,1015.62
2018-09-04T00:36:05.915Z,1015.62
2018-09-04T00:37:05.658Z,1015.59
2018-09-04T00:38:05.750Z,1015.62
2018-09-04T00:39:05.704Z,1015.63
2018-09-04T00:40:05.912Z,1015.6
2018-09-04T00:41:05.939Z,1015.64
2018-09-04T00:42:05.982Z,1015.63
2018-09-04T00:43:05.915Z,1015.64
2018-09-04T00:44:05.895Z,1015.63
2018-09-04T00:45:05.878Z,1015.65
2018-09-04T00:46:06.073Z,1015.64
2018-09-04T00:47:05.750Z,1015.67
2018-09-04T00:48:06.154Z,1015.66
2018-09-04T00:49:06.099Z,1015.66
2018-09-04T00:50:05.685Z,1015.68
2018-09-04T00:51:05.944Z,1015.71
2018-09-04T00:52:05.844Z,1015.69
2018-09-04T00:53:05.751Z,1015.72
2018-09-04T00:54:05.714Z,1015.67
2018-09-04T00:55:05.792Z,1015.69
2018-09-04T00:56:05.837Z,1015.75
2018-09-04T00:57:05.859Z,1015.74
2018-09-04T00:58:05.939Z,1015.73
2018-09-04T00:59:06.454Z,1015.73
2018-09-04T01:00:05.866Z,1015.67
2018-09-04T01:01:06.018Z,1015.7
2018-09-04T01:02:05.735Z,1015.68
2018-09-04T01:03:05.708Z,1015.71
2018-09-04T01:04:05.662Z,1015.68
2018-09-04T01:05:06.054Z,1015.67
2018-09-04T01:06:05.616Z,1015.7
2018-09-04T01:07:05.803Z,1015.67
2018-09-04T01:08:05.700Z,1015.71
2018-09-04T01:09:05.882Z,1015.67
2018-09-04T01:10:05.771Z,1015.66
2018-09-04T01:11:05.896Z,1015.67
2018-09-04T01:12:05.886Z,1015.66
2018-09-04T01:13:05.828Z,1015.65
2018-09-04T01:14:05.926Z,1015.67
2018-09-04T01:15:05.729Z,1015.67
2018-09-04T01:16:05.898Z,1015.66
2018-09-04T01:17:05.842Z,1015.63
2018-09-04T01:18:05.858Z,1015.63
2018-09-04T01:19:05.816Z,1015.65
2018-09-04T01:20:05.714Z,1015.59
2018-09-04T01:21:05.818Z,1015.64
2018-09-04T01:22:06.035Z,1015.61
2018-09-04T01:23:05.909Z,1015.6
2018-09-04T01:24:05.967Z,1015.62
2018-09-04T01:25:05.710Z,1015.64
2018-09-04T01:26:05.775Z,1015.67
2018-09-04T01:27:05.820Z,1015.67
2018-09-04T01:28:05.826Z,1015.69
2018-09-04T01:29:05.799Z,1015.66
2018-09-04T01:30:05.761Z,1015.73
2018-09-04T01:31:05.781Z,1015.7
2018-09-04T01:32:05.768Z,1015.74
2018-09-04T01:33:05.877Z,1015.69
2018-09-04T01:34:05.909Z,1015.72
2018-09-04T01:35:05.847Z,1015.7
2018-09-04T01:36:05.934Z,1015.68
2018-09-04T01:37:05.947Z,1015.71
2018-09-04T01:38:05.884Z,1015.66
2018-09-04T01:39:05.989Z,1015.69
2018-09-04T01:40:05.829Z,1015.7
2018-09-04T01:41:05.946Z,1015.67
2018-09-04T01:42:05.694Z,1015.7
2018-09-04T01:43:05.893Z,1015.69
2018-09-04T01:44:05.871Z,1015.7
2018-09-04T01:45:05.751Z,1015.74
2018-09-04T01:46:05.832Z,1015.75
2018-09-04T01:47:05.889Z,1015.74
2018-09-04T01:48:05.772Z,1015.8
2018-09-04T01:49:05.821Z,1015.75
2018-09-04T01:50:05.798Z,1015.81
2018-09-04T01:51:05.723Z,1015.85
2018-09-04T01:52:05.941Z,1015.82
2018-09-04T01:53:05.784Z,1015.86
2018-09-04T01:54:05.781Z,1015.85
2018-09-04T01:55:05.965Z,1015.84
2018-09-04T01:56:05.946Z,1015.85
2018-09-04T01:57:05.981Z,1015.88
2018-09-04T01:58:05.859Z,1015.9
2018-09-04T01:59:06.046Z,1015.89
2018-09-04T02:00:05.842Z,1015.9
2018-09-04T02:01:05.978Z,1015.85
2018-09-04T02:02:05.762Z,1015.89
2018-09-04T02:03:05.932Z,1015.91
2018-09-04T02:04:05.957Z,1015.94
2018-09-04T02:05:05.906Z,1015.91
2018-09-04T02:06:05.692Z,1015.9
2018-09-04T02:07:05.878Z,1015.87
2018-09-04T02:08:05.663Z,1015.87
2018-09-04T02:09:05.783Z,1015.89
2018-09-04T02:10:05.785Z,1015.85
2018-09-04T02:11:05.763Z,1015.85
2018-09-04T02:12:05.802Z,1015.83
2018-09-04T02:13:06.033Z,1015.84
2018-09-04T02:14:05.872Z,1015.82
2018-09-04T02:15:06.004Z,1015.83
2018-09-04T02:16:05.876Z,1015.83
2018-09-04T02:17:06.000Z,1015.88
2018-09-04T02:18:05.994Z,1015.82
2018-09-04T02:19:05.725Z,1015.81
2018-09-04T02:20:05.683Z,1015.82
2018-09-04T02:21:06.113Z,1015.78
2018-09-04T02:22:06.051Z,1015.79
2018-09-04T02:23:05.956Z,1015.79
2018-09-04T02:24:05.790Z,1015.78
2018-09-04T02:25:05.875Z,1015.76
2018-09-04T02:26:05.625Z,1015.77
2018-09-04T02:27:05.754Z,1015.78
2018-09-04T02:28:05.972Z,1015.77
2018-09-04T02:29:05.797Z,1015.77
2018-09-04T02:30:06.094Z,1015.79
2018-09-04T02:31:05.884Z,1015.8
2018-09-04T02:32:05.866Z,1015.76
2018-09-04T02:33:06.061Z,1015.78
2018-09-04T02:34:05.819Z,1015.78
2018-09-04T02:35:05.826Z,1015.79
2018-09-04T02:36:05.872Z,1015.81
2018-09-04T02:37:05.744Z,1015.81
2018-09-04T02:38:05.934Z,1015.81
2018-09-04T02:39:05.854Z,1015.84
2018-09-04T02:40:05.877Z,1015.86
2018-09-04T02:41:05.728Z,1015.87
2018-09-04T02:42:05.644Z,1015.9
2018-09-04T02:43:05.890Z,1015.89
2018-09-04T02:44:05.871Z,1015.85
2018-09-04T02:45:05.727Z,1015.85
2018-09-04T02:46:05.825Z,1015.87
2018-09-04T02:47:05.772Z,1015.84
2018-09-04T02:48:05.876Z,1015.83
2018-09-04T02:49:05.757Z,1015.88
2018-09-04T02:50:05.756Z,1015.88
2018-09-04T02:51:06.022Z,1015.86
2018-09-04T02:52:05.943Z,1015.87
2018-09-04T02:53:05.905Z,1015.87
2018-09-04T02:54:05.822Z,1015.83
2018-09-04T02:55:05.775Z,1015.84
2018-09-04T02:56:05.796Z,1015.85
2018-09-04T02:57:05.702Z,1015.83
2018-09-04T02:58:06.093Z,1015.83
2018-09-04T02:59:06.024Z,1015.82
2018-09-04T03:00:05.934Z,1015.87
2018-09-04T03:01:05.907Z,1015.84
2018-09-04T03:02:05.715Z,1015.85
2018-09-04T03:03:05.888Z,1015.88
2018-09-04T03:04:05.987Z,1015.85
2018-09-04T03:05:06.256Z,1015.81
2018-09-04T03:06:05.731Z,1015.85
2018-09-04T03:07:05.618Z,1015.84
2018-09-04T03:08:05.877Z,1015.86
2018-09-04T03:09:05.830Z,1015.87
2018-09-04T03:10:05.784Z,1015.89
2018-09-04T03:11:05.943Z,1015.88
2018-09-04T03:12:05.787Z,1015.85
2018-09-04T03:13:05.684Z,1015.84
2018-09-04T03:14:05.955Z,1015.89
2018-09-04T03:15:06.054Z,1015.86
2018-09-04T03:16:05.835Z,1015.87
2018-09-04T03:17:06.017Z,1015.89
2018-09-04T03:18:05.850Z,1015.94
2018-09-04T03:19:05.783Z,1015.93
2018-09-04T03:20:05.724Z,1015.93
2018-09-04T03:21:05.883Z,1015.91
2018-09-04T03:22:05.968Z,1015.92
2018-09-04T03:23:06.086Z,1015.92
2018-09-04T03:24:06.021Z,1015.95
2018-09-04T03:25:05.928Z,1015.96
2018-09-04T03:26:05.874Z,1015.93
2018-09-04T03:27:05.914Z,1015.95
2018-09-04T03:28:05.888Z,1015.97
2018-09-04T03:29:05.765Z,1015.98
2018-09-04T03:30:05.901Z,1015.97
2018-09-04T03:31:05.910Z,1015.93
2018-09-04T03:32:05.856Z,1015.95
2018-09-04T03:33:05.822Z,1015.94
2018-09-04T03:34:05.712Z,1015.9
2018-09-04T03:35:05.882Z,1015.92
2018-09-04T03:36:05.844Z,1015.91
2018-09-04T03:37:05.751Z,1015.85
2018-09-04T03:38:05.957Z,1015.87
2018-09-04T03:39:05.723Z,1015.81
2018-09-04T03:40:05.876Z,1015.86
2018-09-04T03:41:05.868Z,1015.83
2018-09-04T03:42:05.700Z,1015.83
2018-09-04T03:43:06.118Z,1015.81
2018-09-04T03:44:05.800Z,1015.82
2018-09-04T03:45:05.880Z,1015.8
2018-09-04T03:46:05.893Z,1015.76
2018-09-04T03:47:05.785Z,1015.81
2018-09-04T03:48:05.861Z,1015.85
2018-09-04T03:49:06.503Z,1015.82
2018-09-04T03:50:05.969Z,1015.85
2018-09-04T03:51:05.840Z,1015.9
2018-09-04T03:52:05.916Z,1015.91
2018-09-04T03:53:05.922Z,1015.89
2018-09-04T03:54:05.825Z,1015.94
2018-09-04T03:55:05.920Z,1015.93
2018-09-04T03:56:05.778Z,1015.89
2018-09-04T03:57:05.806Z,1015.9
2018-09-04T03:58:05.746Z,1015.87
2018-09-04T03:59:05.925Z,1015.84
2018-09-04T04:00:05.927Z,1015.87
2018-09-04T04:01:05.742Z,1015.91
2018-09-04T04:02:05.807Z,1015.92
2018-09-04T04:03:05.654Z,1015.94
2018-09-04T04:04:05.808Z,1015.97
2018-09-04T04:05:05.613Z,1015.97
2018-09-04T04:06:05.782Z,1015.99
2018-09-04T04:07:05.797Z,1016
2018-09-04T04:08:05.572Z,1015.99
2018-09-04T04:09:05.772Z,1016.04
2018-09-04T04:10:05.739Z,1016.03
2018-09-04T04:11:05.631Z,1016.04
2018-09-04T04:12:06.057Z,1016
2018-09-04T04:13:05.693Z,1016.03
2018-09-04T04:14:05.781Z,1016.02
2018-09-04T04:15:05.697Z,1016.01
2018-09-04T04:16:05.800Z,1016
2018-09-04T04:17:05.631Z,1016.03
2018-09-04T04:18:05.715Z,1015.99
2018-09-04T04:19:05.862Z,1016
2018-09-04T04:20:05.691Z,1016.02
2018-09-04T04:21:05.732Z,1016.01
2018-09-04T04:22:05.702Z,1016.04
2018-09-04T04:23:05.716Z,1016.05
2018-09-04T04:24:05.966Z,1016.04
2018-09-04T04:25:05.818Z,1016.05
2018-09-04T04:26:05.700Z,1016.06
2018-09-04T04:27:05.742Z,1016.04
2018-09-04T04:28:05.923Z,1016.07
2018-09-04T04:29:05.608Z,1016.06
2018-09-04T04:30:05.787Z,1016.07
2018-09-04T04:31:05.816Z,1016.05
2018-09-04T04:32:05.940Z,1016.08
2018-09-04T04:33:06.220Z,1016.08
2018-09-04T04:34:05.723Z,1016.03
2018-09-04T04:35:05.655Z,1016.07
2018-09-04T04:36:05.866Z,1016.06
2018-09-04T04:37:05.878Z,1016.06
2018-09-04T04:38:05.707Z,1016.04
2018-09-04T04:39:05.711Z,1016.08
2018-09-04T04:40:06.185Z,1016.09
2018-09-04T04:41:05.680Z,1016.12
2018-09-04T04:42:05.820Z,1016.15
2018-09-04T04:43:05.712Z,1016.14
2018-09-04T04:44:05.945Z,1016.14
2018-09-04T04:45:05.819Z,1016.18
2018-09-04T04:46:05.653Z,1016.13
2018-09-04T04:47:06.063Z,1016.14
2018-09-04T04:48:05.917Z,1016.13
2018-09-04T04:49:05.792Z,1016.13
2018-09-04T04:50:05.829Z,1016.14
2018-09-04T04:51:05.924Z,1016.14
2018-09-04T04:52:05.827Z,1016.1
2018-09-04T04:53:05.784Z,1016.13
2018-09-04T04:54:05.868Z,1016.17
2018-09-04T04:55:06.017Z,1016.15
2018-09-04T04:56:05.888Z,1016.18
2018-09-04T04:57:05.978Z,1016.21
2018-09-04T04:58:05.646Z,1016.2
2018-09-04T04:59:05.758Z,1016.22
2018-09-04T05:00:05.807Z,1016.23
2018-09-04T05:01:05.824Z,1016.25
2018-09-04T05:02:05.651Z,1016.27
2018-09-04T05:03:05.689Z,1016.28
2018-09-04T05:04:06.001Z,1016.3
2018-09-04T05:05:05.767Z,1016.3
2018-09-04T05:06:05.710Z,1016.34
2018-09-04T05:07:05.882Z,1016.33
2018-09-04T05:08:05.907Z,1016.33
2018-09-04T05:09:05.886Z,1016.31
2018-09-04T05:10:05.613Z,1016.31
2018-09-04T05:11:05.974Z,1016.31
2018-09-04T05:12:05.970Z,1016.3
2018-09-04T05:13:05.862Z,1016.31
2018-09-04T05:14:05.674Z,1016.29
2018-09-04T05:15:05.610Z,1016.31
2018-09-04T05:16:05.737Z,1016.29
2018-09-04T05:17:05.887Z,1016.33
2018-09-04T05:18:05.672Z,1016.31
2018-09-04T05:19:05.966Z,1016.38
2018-09-04T05:20:05.859Z,1016.39
2018-09-04T05:21:05.664Z,1016.42
2018-09-04T05:22:05.732Z,1016.41
2018-09-04T05:23:05.692Z,1016.47
2018-09-04T05:24:05.785Z,1016.44
2018-09-04T05:25:05.902Z,1016.45
2018-09-04T05:26:05.792Z,1016.41
2018-09-04T05:27:05.609Z,1016.48
2018-09-04T05:28:05.794Z,1016.48
2018-09-04T05:29:05.702Z,1016.47
2018-09-04T05:30:05.798Z,1016.46
2018-09-04T05:31:05.830Z,1016.46
2018-09-04T05:32:05.696Z,1016.47
2018-09-04T05:33:05.814Z,1016.5
2018-09-04T05:34:05.678Z,1016.54
2018-09-04T05:35:09.614Z,1016.55
2018-09-04T05:36:05.687Z,1016.55
2018-09-04T05:37:05.789Z,1016.61
2018-09-04T05:38:06.279Z,1016.62
2018-09-04T05:39:05.735Z,1016.67
2018-09-04T05:40:05.833Z,1016.63
2018-09-04T05:41:05.822Z,1016.67
2018-09-04T05:42:05.692Z,1016.64
2018-09-04T05:43:05.993Z,1016.65
2018-09-04T05:44:06.011Z,1016.64
2018-09-04T05:45:05.746Z,1016.65
2018-09-04T05:46:05.757Z,1016.66
2018-09-04T05:47:05.616Z,1016.68
2018-09-04T05:48:05.822Z,1016.67
2018-09-04T05:49:05.685Z,1016.64
2018-09-04T05:50:05.862Z,1016.64
2018-09-04T05:51:05.728Z,1016.63
2018-09-04T05:52:05.723Z,1016.66
2018-09-04T05:53:05.651Z,1016.65
2018-09-04T05:54:06.032Z,1016.66
2018-09-04T05:55:06.197Z,1016.65
2018-09-04T05:56:05.672Z,1016.66
2018-09-04T05:57:05.805Z,1016.69
2018-09-04T05:58:05.934Z,1016.7
2018-09-04T05:59:05.563Z,1016.69
2018-09-04T06:00:05.731Z,1016.72
2018-09-04T06:01:05.820Z,1016.71
2018-09-04T06:02:05.822Z,1016.74
2018-09-04T06:03:05.699Z,1016.75
2018-09-04T06:04:05.603Z,1016.75
2018-09-04T06:05:05.637Z,1016.78
2018-09-04T06:06:05.613Z,1016.72
2018-09-04T06:07:05.654Z,1016.74
2018-09-04T06:08:05.733Z,1016.72
2018-09-04T06:09:05.812Z,1016.74
2018-09-04T06:10:05.775Z,1016.71
2018-09-04T06:11:05.769Z,1016.75
2018-09-04T06:12:05.871Z,1016.74
2018-09-04T06:13:05.960Z,1016.77
2018-09-04T06:14:05.897Z,1016.76
2018-09-04T06:15:05.813Z,1016.77
2018-09-04T06:16:05.870Z,1016.81
2018-09-04T06:17:05.741Z,1016.83
2018-09-04T06:18:06.080Z,1016.81
2018-09-04T06:19:05.699Z,1016.84
2018-09-04T06:20:06.148Z,1016.91
2018-09-04T06:21:05.979Z,1016.88
2018-09-04T06:22:05.883Z,1016.94
2018-09-04T06:23:05.840Z,1016.93
2018-09-04T06:24:05.741Z,1016.91
2018-09-04T06:25:05.778Z,1016.88
2018-09-04T06:26:05.781Z,1016.88
2018-09-04T06:27:05.907Z,1016.9
2018-09-04T06:28:05.731Z,1016.88
2018-09-04T06:29:05.852Z,1016.86
2018-09-04T06:30:05.801Z,1016.89
2018-09-04T06:31:05.945Z,1016.87
2018-09-04T06:32:05.738Z,1016.86
2018-09-04T06:33:05.917Z,1016.84
2018-09-04T06:34:05.984Z,1016.85
2018-09-04T06:35:05.742Z,1016.85
2018-09-04T06:36:05.907Z,1016.86
2018-09-04T06:37:06.614Z,1016.87
2018-09-04T06:38:05.868Z,1016.9
2018-09-04T06:39:05.721Z,1016.86
2018-09-04T06:40:05.740Z,1016.87
2018-09-04T06:41:05.705Z,1016.86
2018-09-04T06:42:05.767Z,1016.87
2018-09-04T06:43:05.752Z,1016.85
2018-09-04T06:44:05.817Z,1016.88
2018-09-04T06:45:05.850Z,1016.92
2018-09-04T06:46:05.741Z,1016.85
2018-09-04T06:47:05.804Z,1016.88
2018-09-04T06:48:05.684Z,1016.86
2018-09-04T06:49:05.694Z,1016.88
2018-09-04T06:50:05.570Z,1016.86
2018-09-04T06:51:05.944Z,1016.87
2018-09-04T06:52:05.771Z,1016.86
2018-09-04T06:53:05.604Z,1016.9
2018-09-04T06:54:05.688Z,1016.9
2018-09-04T06:55:05.777Z,1016.94
2018-09-04T06:56:05.663Z,1016.93
2018-09-04T06:57:05.671Z,1016.94
2018-09-04T06:58:05.670Z,1016.95
2018-09-04T06:59:05.714Z,1016.92
2018-09-04T07:00:05.830Z,1016.91
2018-09-04T07:01:06.109Z,1016.87
2018-09-04T07:02:05.972Z,1016.9
2018-09-04T07:03:05.661Z,1016.91
2018-09-04T07:04:05.734Z,1016.94
2018-09-04T07:05:05.742Z,1016.91
2018-09-04T07:06:06.308Z,1016.94
2018-09-04T07:07:05.756Z,1016.92
2018-09-04T07:08:05.871Z,1016.98
2018-09-04T07:09:05.969Z,1016.97
2018-09-04T07:10:05.768Z,1016.96
2018-09-04T07:11:05.753Z,1016.95
2018-09-04T07:12:05.850Z,1016.97
2018-09-04T07:13:05.691Z,1016.94
2018-09-04T07:14:05.725Z,1016.92
2018-09-04T07:15:05.788Z,1016.93
2018-09-04T07:16:05.716Z,1016.95
2018-09-04T07:17:06.488Z,1016.94
2018-09-04T07:18:05.926Z,1016.98
2018-09-04T07:19:05.689Z,1016.95
2018-09-04T07:20:05.616Z,1016.95
2018-09-04T07:21:05.732Z,1016.96
2018-09-04T07:22:05.695Z,1016.96
2018-09-04T07:23:06.129Z,1016.97
2018-09-04T07:24:05.910Z,1016.95
2018-09-04T07:25:05.878Z,1016.94
2018-09-04T07:26:05.857Z,1016.92
2018-09-04T07:27:05.862Z,1016.9
2018-09-04T07:28:05.826Z,1016.9
2018-09-04T07:29:05.616Z,1016.89
2018-09-04T07:30:05.826Z,1016.88
2018-09-04T07:31:05.948Z,1016.91
2018-09-04T07:32:05.721Z,1016.89
2018-09-04T07:33:05.848Z,1016.89
2018-09-04T07:34:05.865Z,1016.88
2018-09-04T07:35:05.797Z,1016.94
2018-09-04T07:36:05.716Z,1016.89
2018-09-04T07:37:05.782Z,1016.93
2018-09-04T07:38:05.672Z,1016.92
2018-09-04T07:39:05.779Z,1016.92
2018-09-04T07:40:05.635Z,1016.94
2018-09-04T07:41:05.837Z,1016.93
2018-09-04T07:42:05.866Z,1016.93
2018-09-04T07:43:05.736Z,1016.89
2018-09-04T07:44:05.841Z,1016.9
2018-09-04T07:45:05.764Z,1016.91
2018-09-04T07:46:05.677Z,1016.93
2018-09-04T07:47:05.795Z,1016.93
2018-09-04T07:48:05.633Z,1016.96
2018-09-04T07:49:05.758Z,1016.93
2018-09-04T07:50:05.771Z,1016.93
2018-09-04T07:51:05.697Z,1016.92
2018-09-04T07:52:05.753Z,1016.94
2018-09-04T07:53:05.626Z,1016.93
2018-09-04T07:54:05.818Z,1016.9
2018-09-04T07:55:05.866Z,1016.91
2018-09-04T07:56:05.585Z,1016.9
2018-09-04T07:57:05.880Z,1016.89
2018-09-04T07:58:05.670Z,1016.84
2018-09-04T07:59:05.625Z,1016.85
2018-09-04T08:00:05.689Z,1016.82
2018-09-04T08:01:06.054Z,1016.84
2018-09-04T08:02:05.674Z,1016.81
2018-09-04T08:03:05.602Z,1016.81
2018-09-04T08:04:05.633Z,1016.81
2018-09-04T08:05:05.562Z,1016.81
2018-09-04T08:06:05.710Z,1016.82
2018-09-04T08:07:05.823Z,1016.83
2018-09-04T08:08:05.678Z,1016.85
2018-09-04T08:09:05.752Z,1016.84
2018-09-04T08:10:06.030Z,1016.82
2018-09-04T08:11:05.629Z,1016.85
2018-09-04T08:12:05.706Z,1016.84
2018-09-04T08:13:05.734Z,1016.81
2018-09-04T08:14:05.661Z,1016.83
2018-09-04T08:15:05.676Z,1016.83
2018-09-04T08:16:05.537Z,1016.86
2018-09-04T08:17:05.856Z,1016.84
2018-09-04T08:18:05.595Z,1016.87
2018-09-04T08:19:06.006Z,1016.81
2018-09-04T08:20:05.876Z,1016.84
2018-09-04T08:21:05.692Z,1016.86
2018-09-04T08:22:05.593Z,1016.87
2018-09-04T08:23:05.836Z,1016.87
2018-09-04T08:24:05.854Z,1016.89
2018-09-04T08:25:05.955Z,1016.93
2018-09-04T08:26:06.142Z,1016.93
2018-09-04T08:27:05.801Z,1016.96
2018-09-04T08:28:05.748Z,1016.95
2018-09-04T08:29:05.791Z,1016.95
2018-09-04T08:30:05.779Z,1016.97
2018-09-04T08:31:05.645Z,1016.94
2018-09-04T08:32:05.716Z,1016.92
2018-09-04T08:33:06.052Z,1016.87
2018-09-04T08:34:05.659Z,1016.88
2018-09-04T08:35:05.805Z,1016.88
2018-09-04T08:36:05.676Z,1016.86
2018-09-04T08:37:05.611Z,1016.83
2018-09-04T08:38:05.662Z,1016.83
2018-09-04T08:39:05.814Z,1016.8
2018-09-04T08:40:06.174Z,1016.82
2018-09-04T08:41:05.822Z,1016.79
2018-09-04T08:42:05.649Z,1016.77
2018-09-04T08:43:05.536Z,1016.77
2018-09-04T08:44:05.864Z,1016.79
2018-09-04T08:45:05.976Z,1016.77
2018-09-04T08:46:05.718Z,1016.75
2018-09-04T08:47:05.928Z,1016.72
2018-09-04T08:48:05.903Z,1016.74
2018-09-04T08:49:05.773Z,1016.7
2018-09-04T08:50:05.829Z,1016.74
2018-09-04T08:51:05.780Z,1016.7
2018-09-04T08:52:05.657Z,1016.72
2018-09-04T08:53:05.743Z,1016.67
2018-09-04T08:54:05.707Z,1016.69
2018-09-04T08:55:05.667Z,1016.66
2018-09-04T08:56:05.604Z,1016.61
2018-09-04T08:57:05.724Z,1016.6
2018-09-04T08:58:05.672Z,1016.58
2018-09-04T08:59:05.723Z,1016.55
2018-09-04T09:00:05.921Z,1016.55
2018-09-04T09:01:05.742Z,1016.53
2018-09-04T09:02:05.797Z,1016.52
2018-09-04T09:03:05.690Z,1016.55
2018-09-04T09:04:05.674Z,1016.56
2018-09-04T09:05:05.748Z,1016.58
2018-09-04T09:06:05.602Z,1016.56
2018-09-04T09:07:05.690Z,1016.55
2018-09-04T09:08:05.823Z,1016.54
2018-09-04T09:09:05.586Z,1016.52
2018-09-04T09:10:06.105Z,1016.49
2018-09-04T09:11:05.607Z,1016.46
2018-09-04T09:12:05.746Z,1016.47
2018-09-04T09:13:05.697Z,1016.49
2018-09-04T09:14:05.673Z,1016.47
2018-09-04T09:15:05.675Z,1016.47
2018-09-04T09:16:05.758Z,1016.47
2018-09-04T09:17:05.632Z,1016.45
2018-09-04T09:18:05.943Z,1016.47
2018-09-04T09:19:05.622Z,1016.48
2018-09-04T09:20:05.874Z,1016.44
2018-09-04T09:21:05.670Z,1016.43
2018-09-04T09:22:05.777Z,1016.39
2018-09-04T09:23:05.694Z,1016.39
2018-09-04T09:24:05.811Z,1016.36
2018-09-04T09:25:05.664Z,1016.34
2018-09-04T09:26:05.767Z,1016.38
2018-09-04T09:27:05.656Z,1016.33
2018-09-04T09:28:05.633Z,1016.28
2018-09-04T09:29:05.595Z,1016.31
2018-09-04T09:30:05.736Z,1016.29
2018-09-04T09:31:05.744Z,1016.29
2018-09-04T09:32:05.572Z,1016.32
2018-09-04T09:33:05.585Z,1016.28
2018-09-04T09:34:05.647Z,1016.28
2018-09-04T09:35:05.915Z,1016.29
2018-09-04T09:36:05.789Z,1016.31
2018-09-04T09:37:06.061Z,1016.34
2018-09-04T09:38:05.657Z,1016.34
2018-09-04T09:39:05.898Z,1016.34
2018-09-04T09:40:05.511Z,1016.34
2018-09-04T09:41:05.853Z,1016.35
2018-09-04T09:42:05.639Z,1016.38
2018-09-04T09:43:05.873Z,1016.39
2018-09-04T09:44:05.988Z,1016.44
2018-09-04T09:45:05.641Z,1016.39
2018-09-04T09:46:05.662Z,1016.39
2018-09-04T09:47:05.943Z,1016.39
2018-09-04T09:48:05.720Z,1016.38
2018-09-04T09:49:06.114Z,1016.45
2018-09-04T09:50:05.730Z,1016.44
2018-09-04T09:51:05.665Z,1016.44
2018-09-04T09:52:05.724Z,1016.45
2018-09-04T09:53:06.497Z,1016.42
2018-09-04T09:54:05.981Z,1016.45
2018-09-04T09:55:05.710Z,1016.41
2018-09-04T09:56:06.036Z,1016.44
2018-09-04T09:57:05.897Z,1016.36
2018-09-04T09:58:05.634Z,1016.36
2018-09-04T09:59:05.765Z,1016.36
2018-09-04T10:00:05.968Z,1016.36
2018-09-04T10:01:06.058Z,1016.34
2018-09-04T10:02:05.679Z,1016.36
2018-09-04T10:03:05.872Z,1016.35
2018-09-04T10:04:06.091Z,1016.35
2018-09-04T10:05:05.669Z,1016.33
2018-09-04T10:06:05.592Z,1016.32
2018-09-04T10:07:05.569Z,1016.34
2018-09-04T10:08:06.253Z,1016.33
2018-09-04T10:09:05.825Z,1016.34
2018-09-04T10:10:05.934Z,1016.32
2018-09-04T10:11:05.895Z,1016.33
2018-09-04T10:12:06.059Z,1016.34
2018-09-04T10:13:05.606Z,1016.32
2018-09-04T10:14:05.516Z,1016.33
2018-09-04T10:15:05.636Z,1016.31
2018-09-04T10:16:05.720Z,1016.28
2018-09-04T10:17:05.935Z,1016.25
2018-09-04T10:18:05.828Z,1016.23
2018-09-04T10:19:05.809Z,1016.26
2018-09-04T10:20:05.855Z,1016.25
2018-09-04T10:21:05.804Z,1016.23
2018-09-04T10:22:05.712Z,1016.19
2018-09-04T10:23:05.777Z,1016.2
2018-09-04T10:24:05.755Z,1016.22
2018-09-04T10:25:05.624Z,1016.2
2018-09-04T10:26:05.585Z,1016.24
2018-09-04T10:27:05.758Z,1016.19
2018-09-04T10:28:05.548Z,1016.18
2018-09-04T10:29:05.936Z,1016.16
2018-09-04T10:30:05.689Z,1016.13
2018-09-04T10:31:05.651Z,1016.14
2018-09-04T10:32:05.781Z,1016.11
2018-09-04T10:33:05.747Z,1016.05
2018-09-04T10:34:05.618Z,1016.11
2018-09-04T10:35:05.655Z,1016.08
2018-09-04T10:36:05.831Z,1016.13
2018-09-04T10:37:05.782Z,1016.08
2018-09-04T10:38:05.698Z,1016.08
2018-09-04T10:39:05.773Z,1016.08
2018-09-04T10:40:05.767Z,1016.09
2018-09-04T10:41:05.628Z,1016.06
2018-09-04T10:42:05.873Z,1016.07
2018-09-04T10:43:05.583Z,1016.06
2018-09-04T10:44:05.843Z,1016.06
2018-09-04T10:45:05.778Z,1016.05
2018-09-04T10:46:05.595Z,1016.08
2018-09-04T10:47:05.775Z,1016.04
2018-09-04T10:48:05.708Z,1016.04
2018-09-04T10:49:05.547Z,1016.07
2018-09-04T10:50:05.568Z,1016.04
2018-09-04T10:51:05.732Z,1016.07
2018-09-04T10:52:05.688Z,1016.07
2018-09-04T10:53:05.690Z,1016.08
2018-09-04T10:54:05.597Z,1016.07
2018-09-04T10:55:05.676Z,1016.08
2018-09-04T10:56:05.945Z,1016.09
2018-09-04T10:57:05.654Z,1016.06
2018-09-04T10:58:05.836Z,1016.1
2018-09-04T10:59:05.867Z,1016.09
2018-09-04T11:00:05.713Z,1016.08
2018-09-04T11:01:05.712Z,1016.06
2018-09-04T11:02:05.634Z,1016.1
2018-09-04T11:03:06.085Z,1016.06
2018-09-04T11:04:06.037Z,1016.04
2018-09-04T11:05:05.819Z,1016.03
2018-09-04T11:06:05.740Z,1016.02
2018-09-04T11:07:05.561Z,1016.01
2018-09-04T11:08:05.817Z,1016.03
2018-09-04T11:09:06.035Z,1015.99
2018-09-04T11:10:05.601Z,1016.02
2018-09-04T11:11:05.790Z,1015.99
2018-09-04T11:12:05.586Z,1015.99
2018-09-04T11:13:05.658Z,1016
2018-09-04T11:14:05.892Z,1015.97
2018-09-04T11:15:05.713Z,1015.97
2018-09-04T11:16:05.961Z,1015.98
2018-09-04T11:17:05.734Z,1015.96
2018-09-04T11:18:05.605Z,1015.98
2018-09-04T11:19:05.643Z,1015.97
2018-09-04T11:20:05.996Z,1015.97
2018-09-04T11:21:05.525Z,1015.99
2018-09-04T11:22:05.708Z,1015.94
2018-09-04T11:23:05.616Z,1015.92
2018-09-04T11:24:05.860Z,1015.95
2018-09-04T11:25:05.637Z,1015.93
2018-09-04T11:26:05.733Z,1015.88
2018-09-04T11:27:05.781Z,1015.88
2018-09-04T11:28:05.912Z,1015.9
2018-09-04T11:29:05.569Z,1015.89
2018-09-04T11:30:05.623Z,1015.87
2018-09-04T11:31:05.624Z,1015.86
2018-09-04T11:32:05.853Z,1015.83
2018-09-04T11:33:05.813Z,1015.83
2018-09-04T11:34:05.919Z,1015.83
2018-09-04T11:35:05.803Z,1015.82
2018-09-04T11:36:05.724Z,1015.82
2018-09-04T11:37:05.751Z,1015.79
2018-09-04T11:38:05.790Z,1015.81
2018-09-04T11:39:05.781Z,1015.8
2018-09-04T11:40:05.602Z,1015.76
2018-09-04T11:41:05.687Z,1015.76
2018-09-04T11:42:05.737Z,1015.74
2018-09-04T11:43:05.954Z,1015.72
2018-09-04T11:44:05.692Z,1015.72
2018-09-04T11:45:05.679Z,1015.75
2018-09-04T11:46:05.940Z,1015.77
2018-09-04T11:47:05.781Z,1015.76
2018-09-04T11:48:06.067Z,1015.78
2018-09-04T11:49:05.744Z,1015.78
2018-09-04T11:50:05.725Z,1015.75
2018-09-04T11:51:07.404Z,1015.75
2018-09-04T11:52:05.696Z,1015.76
2018-09-04T11:53:06.046Z,1015.74
2018-09-04T11:54:05.600Z,1015.78
2018-09-04T11:55:05.717Z,1015.75
2018-09-04T11:56:05.796Z,1015.8
2018-09-04T11:57:05.673Z,1015.76
2018-09-04T11:58:05.512Z,1015.76
2018-09-04T11:59:05.617Z,1015.77
2018-09-04T12:00:05.642Z,1015.73
2018-09-04T12:01:05.625Z,1015.77
2018-09-04T12:02:05.663Z,1015.78
2018-09-04T12:03:05.632Z,1015.76
2018-09-04T12:04:05.631Z,1015.74
2018-09-04T12:05:05.571Z,1015.77
2018-09-04T12:06:05.623Z,1015.75
2018-09-04T12:07:05.576Z,1015.71